sensor_id;sensor_type;location;lat;lon;timestamp;P1;durP1;ratioP1;P2;durP2;ratioP2
25479;SDS011;13393;49.378;8.686;2024-01-06T00:00:44;6.05;;;2.42;;
25479;SDS011;13393;49.378;8.686;2024-01-06T00:03:10;6.05;;;2.80;;
25479;SDS011;13393;49.378;8.686;2024-01-06T00:05:40;9.23;;;3.35;;
25479;SDS011;13393;49.378;8.686;2024-01-06T00:08:06;5.47;;;3.13;;
25479;SDS011;13393;49.378;8.686;2024-01-06T00:10:33;6.72;;;2.60;;
25479;SDS011;13393;49.378;8.686;2024-01-06T00:13:00;7.18;;;2.83;;
25479;SDS011;13393;49.378;8.686;2024-01-06T00:15:26;8.07;;;3.05;;
25479;SDS011;13393;49.378;8.686;2024-01-06T00:17:53;6.10;;;3.17;;
25479;SDS011;13393;49.378;8.686;2024-01-06T00:20:19;10.88;;;3.28;;
25479;SDS011;13393;49.378;8.686;2024-01-06T00:22:47;6.50;;;2.67;;
25479;SDS011;13393;49.378;8.686;2024-01-06T00:25:14;5.70;;;3.17;;
25479;SDS011;13393;49.378;8.686;2024-01-06T00:27:41;6.40;;;3.75;;
25479;SDS011;13393;49.378;8.686;2024-01-06T00:30:08;5.57;;;3.45;;
25479;SDS011;13393;49.378;8.686;2024-01-06T00:32:35;7.57;;;2.70;;
25479;SDS011;13393;49.378;8.686;2024-01-06T00:35:02;5.82;;;2.40;;
25479;SDS011;13393;49.378;8.686;2024-01-06T00:37:28;4.18;;;2.45;;
25479;SDS011;13393;49.378;8.686;2024-01-06T00:39:56;5.88;;;2.97;;
25479;SDS011;13393;49.378;8.686;2024-01-06T00:42:23;6.88;;;2.72;;
25479;SDS011;13393;49.378;8.686;2024-01-06T00:44:51;6.20;;;2.65;;
25479;SDS011;13393;49.378;8.686;2024-01-06T00:47:17;6.35;;;2.45;;
25479;SDS011;13393;49.378;8.686;2024-01-06T00:49:47;6.70;;;2.63;;
25479;SDS011;13393;49.378;8.686;2024-01-06T00:52:14;4.10;;;2.67;;
25479;SDS011;13393;49.378;8.686;2024-01-06T00:54:40;7.30;;;3.40;;
25479;SDS011;13393;49.378;8.686;2024-01-06T00:57:08;8.35;;;3.15;;
25479;SDS011;13393;49.378;8.686;2024-01-06T00:59:35;6.95;;;2.65;;
25479;SDS011;13393;49.378;8.686;2024-01-06T01:02:02;5.07;;;2.50;;
25479;SDS011;13393;49.378;8.686;2024-01-06T01:04:28;5.70;;;2.78;;
25479;SDS011;13393;49.378;8.686;2024-01-06T01:06:55;5.38;;;2.72;;
25479;SDS011;13393;49.378;8.686;2024-01-06T01:09:21;4.85;;;2.60;;
25479;SDS011;13393;49.378;8.686;2024-01-06T01:11:49;5.63;;;2.80;;
25479;SDS011;13393;49.378;8.686;2024-01-06T01:14:18;6.30;;;2.83;;
25479;SDS011;13393;49.378;8.686;2024-01-06T01:16:45;5.18;;;2.60;;
25479;SDS011;13393;49.378;8.686;2024-01-06T01:19:11;6.65;;;2.97;;
25479;SDS011;13393;49.378;8.686;2024-01-06T01:21:39;7.68;;;3.33;;
25479;SDS011;13393;49.378;8.686;2024-01-06T01:24:06;7.15;;;3.20;;
25479;SDS011;13393;49.378;8.686;2024-01-06T01:26:32;9.35;;;2.95;;
25479;SDS011;13393;49.378;8.686;2024-01-06T01:28:59;6.82;;;3.45;;
25479;SDS011;13393;49.378;8.686;2024-01-06T01:31:27;7.22;;;3.40;;
25479;SDS011;13393;49.378;8.686;2024-01-06T01:33:54;5.50;;;2.85;;
25479;SDS011;13393;49.378;8.686;2024-01-06T01:36:21;7.60;;;3.15;;
25479;SDS011;13393;49.378;8.686;2024-01-06T01:38:47;9.85;;;3.22;;
25479;SDS011;13393;49.378;8.686;2024-01-06T01:41:14;7.00;;;2.80;;
25479;SDS011;13393;49.378;8.686;2024-01-06T01:43:40;6.60;;;3.00;;
25479;SDS011;13393;49.378;8.686;2024-01-06T01:46:07;5.32;;;2.80;;
25479;SDS011;13393;49.378;8.686;2024-01-06T01:48:35;7.68;;;2.80;;
25479;SDS011;13393;49.378;8.686;2024-01-06T01:51:01;6.50;;;2.97;;
25479;SDS011;13393;49.378;8.686;2024-01-06T01:53:28;8.20;;;4.22;;
25479;SDS011;13393;49.378;8.686;2024-01-06T01:55:56;7.70;;;3.85;;
25479;SDS011;13393;49.378;8.686;2024-01-06T01:58:22;10.95;;;3.88;;
25479;SDS011;13393;49.378;8.686;2024-01-06T02:00:49;6.07;;;3.58;;
25479;SDS011;13393;49.378;8.686;2024-01-06T02:03:16;6.47;;;3.03;;
25479;SDS011;13393;49.378;8.686;2024-01-06T02:05:44;7.03;;;3.08;;
25479;SDS011;13393;49.378;8.686;2024-01-06T02:08:11;9.90;;;3.60;;
25479;SDS011;13393;49.378;8.686;2024-01-06T02:10:37;9.43;;;3.47;;
25479;SDS011;13393;49.378;8.686;2024-01-06T02:13:07;10.45;;;3.20;;
25479;SDS011;13393;49.378;8.686;2024-01-06T02:15:34;9.13;;;3.58;;
25479;SDS011;13393;49.378;8.686;2024-01-06T02:18:00;6.55;;;3.53;;
25479;SDS011;13393;49.378;8.686;2024-01-06T02:20:27;6.50;;;3.40;;
25479;SDS011;13393;49.378;8.686;2024-01-06T02:22:57;5.72;;;3.17;;
25479;SDS011;13393;49.378;8.686;2024-01-06T02:25:25;9.73;;;2.90;;
25479;SDS011;13393;49.378;8.686;2024-01-06T02:27:52;5.75;;;3.08;;
25479;SDS011;13393;49.378;8.686;2024-01-06T02:30:19;8.25;;;3.63;;
25479;SDS011;13393;49.378;8.686;2024-01-06T02:32:47;9.95;;;4.43;;
25479;SDS011;13393;49.378;8.686;2024-01-06T02:35:13;8.73;;;3.17;;
25479;SDS011;13393;49.378;8.686;2024-01-06T02:37:41;7.85;;;3.38;;
25479;SDS011;13393;49.378;8.686;2024-01-06T02:40:11;5.57;;;3.15;;
25479;SDS011;13393;49.378;8.686;2024-01-06T02:42:38;5.97;;;3.38;;
25479;SDS011;13393;49.378;8.686;2024-01-06T02:45:05;7.50;;;2.95;;
25479;SDS011;13393;49.378;8.686;2024-01-06T02:47:32;5.15;;;3.25;;
25479;SDS011;13393;49.378;8.686;2024-01-06T02:49:58;6.10;;;3.72;;
25479;SDS011;13393;49.378;8.686;2024-01-06T02:52:25;7.57;;;3.45;;
25479;SDS011;13393;49.378;8.686;2024-01-06T02:54:52;6.63;;;3.65;;
25479;SDS011;13393;49.378;8.686;2024-01-06T02:57:20;5.78;;;4.18;;
25479;SDS011;13393;49.378;8.686;2024-01-06T02:59:46;7.25;;;4.00;;
25479;SDS011;13393;49.378;8.686;2024-01-06T03:02:13;7.28;;;3.58;;
25479;SDS011;13393;49.378;8.686;2024-01-06T03:04:39;5.63;;;3.28;;
25479;SDS011;13393;49.378;8.686;2024-01-06T03:07:06;8.85;;;3.50;;
25479;SDS011;13393;49.378;8.686;2024-01-06T03:09:32;8.05;;;3.58;;
25479;SDS011;13393;49.378;8.686;2024-01-06T03:11:59;8.20;;;4.20;;
25479;SDS011;13393;49.378;8.686;2024-01-06T03:14:27;7.47;;;4.35;;
25479;SDS011;13393;49.378;8.686;2024-01-06T03:16:53;5.13;;;3.65;;
25479;SDS011;13393;49.378;8.686;2024-01-06T03:19:20;3.75;;;2.85;;
25479;SDS011;13393;49.378;8.686;2024-01-06T03:21:51;6.65;;;3.35;;
25479;SDS011;13393;49.378;8.686;2024-01-06T03:24:17;7.88;;;3.25;;
25479;SDS011;13393;49.378;8.686;2024-01-06T03:26:44;6.32;;;3.40;;
25479;SDS011;13393;49.378;8.686;2024-01-06T03:29:10;6.75;;;3.13;;
25479;SDS011;13393;49.378;8.686;2024-01-06T03:31:38;6.22;;;3.00;;
25479;SDS011;13393;49.378;8.686;2024-01-06T03:34:07;5.00;;;3.10;;
25479;SDS011;13393;49.378;8.686;2024-01-06T03:36:36;6.20;;;3.42;;
25479;SDS011;13393;49.378;8.686;2024-01-06T03:39:02;10.82;;;3.20;;
25479;SDS011;13393;49.378;8.686;2024-01-06T03:41:29;7.82;;;3.90;;
25479;SDS011;13393;49.378;8.686;2024-01-06T03:43:55;11.75;;;5.05;;
25479;SDS011;13393;49.378;8.686;2024-01-06T03:46:22;7.55;;;3.60;;
25479;SDS011;13393;49.378;8.686;2024-01-06T03:48:50;6.22;;;2.85;;
25479;SDS011;13393;49.378;8.686;2024-01-06T03:51:16;7.07;;;3.33;;
25479;SDS011;13393;49.378;8.686;2024-01-06T03:53:43;5.15;;;2.63;;
25479;SDS011;13393;49.378;8.686;2024-01-06T03:56:10;6.85;;;3.55;;
25479;SDS011;13393;49.378;8.686;2024-01-06T03:58:36;7.07;;;2.85;;
25479;SDS011;13393;49.378;8.686;2024-01-06T04:01:03;7.05;;;2.78;;
25479;SDS011;13393;49.378;8.686;2024-01-06T04:03:29;6.65;;;2.83;;
25479;SDS011;13393;49.378;8.686;2024-01-06T04:05:58;6.68;;;2.58;;
25479;SDS011;13393;49.378;8.686;2024-01-06T04:08:24;4.65;;;2.78;;
25479;SDS011;13393;49.378;8.686;2024-01-06T04:10:51;6.72;;;3.45;;
25479;SDS011;13393;49.378;8.686;2024-01-06T04:13:18;6.03;;;3.08;;
25479;SDS011;13393;49.378;8.686;2024-01-06T04:15:44;6.72;;;3.00;;
25479;SDS011;13393;49.378;8.686;2024-01-06T04:18:11;5.55;;;2.90;;
25479;SDS011;13393;49.378;8.686;2024-01-06T04:20:37;5.22;;;2.80;;
25479;SDS011;13393;49.378;8.686;2024-01-06T04:23:05;4.10;;;2.78;;
25479;SDS011;13393;49.378;8.686;2024-01-06T04:25:32;6.38;;;2.83;;
25479;SDS011;13393;49.378;8.686;2024-01-06T04:27:58;3.88;;;2.42;;
25479;SDS011;13393;49.378;8.686;2024-01-06T04:30:25;6.13;;;2.80;;
25479;SDS011;13393;49.378;8.686;2024-01-06T04:32:51;7.22;;;3.00;;
25479;SDS011;13393;49.378;8.686;2024-01-06T04:35:19;5.13;;;3.70;;
25479;SDS011;13393;49.378;8.686;2024-01-06T04:37:46;11.30;;;3.70;;
25479;SDS011;13393;49.378;8.686;2024-01-06T04:40:14;8.90;;;3.20;;
25479;SDS011;13393;49.378;8.686;2024-01-06T04:42:41;7.55;;;3.08;;
25479;SDS011;13393;49.378;8.686;2024-01-06T04:45:07;5.50;;;2.75;;
25479;SDS011;13393;49.378;8.686;2024-01-06T04:47:35;7.40;;;3.22;;
25479;SDS011;13393;49.378;8.686;2024-01-06T04:50:02;4.22;;;2.33;;
25479;SDS011;13393;49.378;8.686;2024-01-06T04:52:29;6.07;;;3.08;;
25479;SDS011;13393;49.378;8.686;2024-01-06T04:54:56;6.15;;;2.80;;
25479;SDS011;13393;49.378;8.686;2024-01-06T04:57:24;5.22;;;2.50;;
25479;SDS011;13393;49.378;8.686;2024-01-06T04:59:50;8.52;;;3.97;;
25479;SDS011;13393;49.378;8.686;2024-01-06T05:02:17;8.82;;;4.32;;
25479;SDS011;13393;49.378;8.686;2024-01-06T05:04:44;4.25;;;2.75;;
25479;SDS011;13393;49.378;8.686;2024-01-06T05:07:10;7.57;;;2.75;;
25479;SDS011;13393;49.378;8.686;2024-01-06T05:09:37;8.43;;;2.85;;
25479;SDS011;13393;49.378;8.686;2024-01-06T05:12:04;6.20;;;2.65;;
25479;SDS011;13393;49.378;8.686;2024-01-06T05:14:33;4.40;;;2.30;;
25479;SDS011;13393;49.378;8.686;2024-01-06T05:17:00;5.05;;;2.63;;
25479;SDS011;13393;49.378;8.686;2024-01-06T05:19:26;5.03;;;2.67;;
25479;SDS011;13393;49.378;8.686;2024-01-06T05:21:54;5.88;;;2.45;;
25479;SDS011;13393;49.378;8.686;2024-01-06T05:24:22;8.32;;;2.78;;
25479;SDS011;13393;49.378;8.686;2024-01-06T05:26:48;7.50;;;3.42;;
25479;SDS011;13393;49.378;8.686;2024-01-06T05:29:15;8.55;;;3.45;;
25479;SDS011;13393;49.378;8.686;2024-01-06T05:31:43;8.80;;;3.00;;
25479;SDS011;13393;49.378;8.686;2024-01-06T05:34:12;6.18;;;2.72;;
25479;SDS011;13393;49.378;8.686;2024-01-06T05:36:38;6.68;;;2.75;;
25479;SDS011;13393;49.378;8.686;2024-01-06T05:39:05;6.50;;;2.65;;
25479;SDS011;13393;49.378;8.686;2024-01-06T05:41:36;4.22;;;2.40;;
25479;SDS011;13393;49.378;8.686;2024-01-06T05:44:03;7.00;;;3.53;;
25479;SDS011;13393;49.378;8.686;2024-01-06T05:46:30;5.70;;;3.47;;
25479;SDS011;13393;49.378;8.686;2024-01-06T05:48:57;5.30;;;2.95;;
25479;SDS011;13393;49.378;8.686;2024-01-06T05:51:25;7.10;;;2.75;;
25479;SDS011;13393;49.378;8.686;2024-01-06T05:53:51;6.53;;;2.58;;
25479;SDS011;13393;49.378;8.686;2024-01-06T05:56:23;9.02;;;3.00;;
25479;SDS011;13393;49.378;8.686;2024-01-06T05:58:51;7.70;;;2.60;;
25479;SDS011;13393;49.378;8.686;2024-01-06T06:01:18;5.70;;;2.78;;
25479;SDS011;13393;49.378;8.686;2024-01-06T06:03:44;6.07;;;2.33;;
25479;SDS011;13393;49.378;8.686;2024-01-06T06:06:12;4.43;;;2.40;;
25479;SDS011;13393;49.378;8.686;2024-01-06T06:08:39;6.38;;;2.42;;
25479;SDS011;13393;49.378;8.686;2024-01-06T06:11:06;5.22;;;2.58;;
25479;SDS011;13393;49.378;8.686;2024-01-06T06:13:36;7.22;;;2.70;;
25479;SDS011;13393;49.378;8.686;2024-01-06T06:16:03;5.70;;;2.60;;
25479;SDS011;13393;49.378;8.686;2024-01-06T06:18:29;7.88;;;2.80;;
25479;SDS011;13393;49.378;8.686;2024-01-06T06:20:56;4.65;;;2.55;;
25479;SDS011;13393;49.378;8.686;2024-01-06T06:23:25;4.68;;;2.53;;
25479;SDS011;13393;49.378;8.686;2024-01-06T06:25:51;5.75;;;2.70;;
25479;SDS011;13393;49.378;8.686;2024-01-06T06:28:18;5.43;;;2.60;;
25479;SDS011;13393;49.378;8.686;2024-01-06T06:30:44;10.00;;;3.17;;
25479;SDS011;13393;49.378;8.686;2024-01-06T06:33:11;5.93;;;3.15;;
25479;SDS011;13393;49.378;8.686;2024-01-06T06:35:37;5.45;;;2.53;;
25479;SDS011;13393;49.378;8.686;2024-01-06T06:38:04;6.78;;;2.70;;
25479;SDS011;13393;49.378;8.686;2024-01-06T06:40:32;6.65;;;2.85;;
25479;SDS011;13393;49.378;8.686;2024-01-06T06:42:59;11.40;;;3.00;;
25479;SDS011;13393;49.378;8.686;2024-01-06T06:45:26;4.50;;;2.45;;
25479;SDS011;13393;49.378;8.686;2024-01-06T06:47:52;7.65;;;3.03;;
25479;SDS011;13393;49.378;8.686;2024-01-06T06:50:18;6.53;;;2.50;;
25479;SDS011;13393;49.378;8.686;2024-01-06T06:52:45;3.97;;;2.15;;
25479;SDS011;13393;49.378;8.686;2024-01-06T06:55:12;8.38;;;3.45;;
25479;SDS011;13393;49.378;8.686;2024-01-06T06:57:40;7.85;;;3.30;;
25479;SDS011;13393;49.378;8.686;2024-01-06T07:00:07;6.82;;;4.05;;
25479;SDS011;13393;49.378;8.686;2024-01-06T07:02:34;6.80;;;2.85;;
25479;SDS011;13393;49.378;8.686;2024-01-06T07:05:00;7.00;;;3.13;;
25479;SDS011;13393;49.378;8.686;2024-01-06T07:07:28;4.93;;;2.63;;
25479;SDS011;13393;49.378;8.686;2024-01-06T07:09:55;5.55;;;2.60;;
25479;SDS011;13393;49.378;8.686;2024-01-06T07:12:21;5.97;;;2.83;;
25479;SDS011;13393;49.378;8.686;2024-01-06T07:14:49;5.97;;;2.75;;
25479;SDS011;13393;49.378;8.686;2024-01-06T07:17:16;5.20;;;3.05;;
25479;SDS011;13393;49.378;8.686;2024-01-06T07:19:43;4.72;;;2.78;;
25479;SDS011;13393;49.378;8.686;2024-01-06T07:22:09;3.30;;;2.45;;
25479;SDS011;13393;49.378;8.686;2024-01-06T07:24:36;5.47;;;2.40;;
25479;SDS011;13393;49.378;8.686;2024-01-06T07:27:03;7.13;;;2.92;;
25479;SDS011;13393;49.378;8.686;2024-01-06T07:29:29;8.32;;;3.92;;
25479;SDS011;13393;49.378;8.686;2024-01-06T07:31:57;5.82;;;3.10;;
25479;SDS011;13393;49.378;8.686;2024-01-06T07:34:24;6.93;;;2.88;;
25479;SDS011;13393;49.378;8.686;2024-01-06T07:36:51;4.97;;;2.60;;
25479;SDS011;13393;49.378;8.686;2024-01-06T07:39:17;5.93;;;2.80;;
25479;SDS011;13393;49.378;8.686;2024-01-06T07:41:44;5.10;;;2.50;;
25479;SDS011;13393;49.378;8.686;2024-01-06T07:44:11;6.55;;;2.72;;
25479;SDS011;13393;49.378;8.686;2024-01-06T07:46:38;4.65;;;2.67;;
25479;SDS011;13393;49.378;8.686;2024-01-06T07:49:06;6.57;;;2.53;;
25479;SDS011;13393;49.378;8.686;2024-01-06T07:51:33;7.15;;;3.22;;
25479;SDS011;13393;49.378;8.686;2024-01-06T07:54:00;4.63;;;2.70;;
25479;SDS011;13393;49.378;8.686;2024-01-06T07:56:27;7.50;;;2.55;;
25479;SDS011;13393;49.378;8.686;2024-01-06T07:58:54;5.20;;;2.75;;
25479;SDS011;13393;49.378;8.686;2024-01-06T08:01:20;7.80;;;2.78;;
25479;SDS011;13393;49.378;8.686;2024-01-06T08:03:47;4.97;;;2.70;;
25479;SDS011;13393;49.378;8.686;2024-01-06T08:06:16;6.30;;;3.00;;
25479;SDS011;13393;49.378;8.686;2024-01-06T08:08:43;6.93;;;3.42;;
25479;SDS011;13393;49.378;8.686;2024-01-06T08:11:10;7.68;;;3.63;;
25479;SDS011;13393;49.378;8.686;2024-01-06T08:13:37;8.45;;;4.20;;
25479;SDS011;13393;49.378;8.686;2024-01-06T08:16:05;6.32;;;3.35;;
25479;SDS011;13393;49.378;8.686;2024-01-06T08:18:31;9.75;;;5.22;;
25479;SDS011;13393;49.378;8.686;2024-01-06T08:20:58;9.65;;;4.00;;
25479;SDS011;13393;49.378;8.686;2024-01-06T08:23:26;4.43;;;3.13;;
25479;SDS011;13393;49.378;8.686;2024-01-06T08:25:53;5.85;;;2.92;;
25479;SDS011;13393;49.378;8.686;2024-01-06T08:28:19;7.97;;;3.03;;
25479;SDS011;13393;49.378;8.686;2024-01-06T08:30:48;7.30;;;3.47;;
25479;SDS011;13393;49.378;8.686;2024-01-06T08:33:14;7.82;;;3.42;;
25479;SDS011;13393;49.378;8.686;2024-01-06T08:35:42;6.45;;;3.40;;
25479;SDS011;13393;49.378;8.686;2024-01-06T08:38:09;6.43;;;3.08;;
25479;SDS011;13393;49.378;8.686;2024-01-06T08:40:37;4.95;;;3.03;;
25479;SDS011;13393;49.378;8.686;2024-01-06T08:43:03;5.78;;;3.20;;
25479;SDS011;13393;49.378;8.686;2024-01-06T08:45:30;6.25;;;2.95;;
25479;SDS011;13393;49.378;8.686;2024-01-06T08:47:57;5.90;;;3.30;;
25479;SDS011;13393;49.378;8.686;2024-01-06T08:50:23;5.82;;;3.40;;
25479;SDS011;13393;49.378;8.686;2024-01-06T08:52:50;9.02;;;3.30;;
25479;SDS011;13393;49.378;8.686;2024-01-06T08:55:17;4.93;;;3.13;;
25479;SDS011;13393;49.378;8.686;2024-01-06T08:57:45;6.28;;;3.78;;
25479;SDS011;13393;49.378;8.686;2024-01-06T09:00:14;6.43;;;3.50;;
25479;SDS011;13393;49.378;8.686;2024-01-06T09:02:41;5.20;;;2.88;;
25479;SDS011;13393;49.378;8.686;2024-01-06T09:05:08;5.78;;;3.17;;
25479;SDS011;13393;49.378;8.686;2024-01-06T09:07:34;4.53;;;2.75;;
25479;SDS011;13393;49.378;8.686;2024-01-06T09:10:01;7.13;;;3.53;;
25479;SDS011;13393;49.378;8.686;2024-01-06T09:12:27;10.18;;;2.92;;
25479;SDS011;13393;49.378;8.686;2024-01-06T09:14:56;5.70;;;3.20;;
25479;SDS011;13393;49.378;8.686;2024-01-06T09:17:23;8.35;;;3.20;;
25479;SDS011;13393;49.378;8.686;2024-01-06T09:19:49;5.88;;;4.00;;
25479;SDS011;13393;49.378;8.686;2024-01-06T09:22:18;10.77;;;3.00;;
25479;SDS011;13393;49.378;8.686;2024-01-06T09:24:45;5.57;;;3.15;;
25479;SDS011;13393;49.378;8.686;2024-01-06T09:27:11;4.75;;;2.85;;
25479;SDS011;13393;49.378;8.686;2024-01-06T09:29:38;7.22;;;3.22;;
25479;SDS011;13393;49.378;8.686;2024-01-06T09:32:06;7.22;;;3.10;;
25479;SDS011;13393;49.378;8.686;2024-01-06T09:34:33;8.95;;;4.05;;
25479;SDS011;13393;49.378;8.686;2024-01-06T09:36:59;5.68;;;3.40;;
25479;SDS011;13393;49.378;8.686;2024-01-06T09:39:26;6.82;;;3.53;;
25479;SDS011;13393;49.378;8.686;2024-01-06T09:41:52;10.25;;;3.63;;
25479;SDS011;13393;49.378;8.686;2024-01-06T09:44:19;5.25;;;3.22;;
25479;SDS011;13393;49.378;8.686;2024-01-06T09:46:46;5.20;;;3.25;;
25479;SDS011;13393;49.378;8.686;2024-01-06T09:49:15;6.75;;;3.65;;
25479;SDS011;13393;49.378;8.686;2024-01-06T09:51:43;8.63;;;3.33;;
25479;SDS011;13393;49.378;8.686;2024-01-06T09:54:15;7.80;;;4.13;;
25479;SDS011;13393;49.378;8.686;2024-01-06T09:56:42;7.18;;;3.55;;
25479;SDS011;13393;49.378;8.686;2024-01-06T09:59:12;5.15;;;3.20;;
25479;SDS011;13393;49.378;8.686;2024-01-06T10:01:39;6.57;;;3.80;;
25479;SDS011;13393;49.378;8.686;2024-01-06T10:04:06;5.53;;;4.03;;
25479;SDS011;13393;49.378;8.686;2024-01-06T10:06:34;7.55;;;3.65;;
25479;SDS011;13393;49.378;8.686;2024-01-06T10:09:01;6.63;;;3.50;;
25479;SDS011;13393;49.378;8.686;2024-01-06T10:11:30;8.15;;;4.28;;
25479;SDS011;13393;49.378;8.686;2024-01-06T10:13:56;8.23;;;4.38;;
25479;SDS011;13393;49.378;8.686;2024-01-06T10:16:23;10.45;;;4.50;;
25479;SDS011;13393;49.378;8.686;2024-01-06T10:18:50;9.07;;;4.72;;
25479;SDS011;13393;49.378;8.686;2024-01-06T10:21:17;10.88;;;4.40;;
25479;SDS011;13393;49.378;8.686;2024-01-06T10:23:48;8.25;;;4.18;;
25479;SDS011;13393;49.378;8.686;2024-01-06T10:26:15;5.43;;;4.47;;
25479;SDS011;13393;49.378;8.686;2024-01-06T10:28:42;6.82;;;4.60;;
25479;SDS011;13393;49.378;8.686;2024-01-06T10:31:09;8.25;;;4.57;;
25479;SDS011;13393;49.378;8.686;2024-01-06T10:33:36;7.32;;;4.15;;
25479;SDS011;13393;49.378;8.686;2024-01-06T10:36:03;6.70;;;4.50;;
25479;SDS011;13393;49.378;8.686;2024-01-06T10:38:30;6.47;;;4.50;;
25479;SDS011;13393;49.378;8.686;2024-01-06T10:40:59;8.20;;;3.88;;
25479;SDS011;13393;49.378;8.686;2024-01-06T10:43:28;8.75;;;4.72;;
25479;SDS011;13393;49.378;8.686;2024-01-06T10:45:57;6.43;;;4.30;;
25479;SDS011;13393;49.378;8.686;2024-01-06T10:48:25;8.30;;;5.28;;
25479;SDS011;13393;49.378;8.686;2024-01-06T10:50:52;6.07;;;4.28;;
25479;SDS011;13393;49.378;8.686;2024-01-06T10:53:20;7.05;;;4.55;;
25479;SDS011;13393;49.378;8.686;2024-01-06T10:55:48;8.82;;;5.20;;
25479;SDS011;13393;49.378;8.686;2024-01-06T10:58:21;8.32;;;5.38;;
25479;SDS011;13393;49.378;8.686;2024-01-06T11:00:47;8.23;;;5.07;;
25479;SDS011;13393;49.378;8.686;2024-01-06T11:03:14;7.93;;;5.43;;
25479;SDS011;13393;49.378;8.686;2024-01-06T11:05:40;10.13;;;5.70;;
25479;SDS011;13393;49.378;8.686;2024-01-06T11:08:07;8.93;;;5.65;;
25479;SDS011;13393;49.378;8.686;2024-01-06T11:10:35;11.13;;;6.75;;
25479;SDS011;13393;49.378;8.686;2024-01-06T11:13:07;13.10;;;6.78;;
25479;SDS011;13393;49.378;8.686;2024-01-06T11:15:43;7.72;;;5.28;;
25479;SDS011;13393;49.378;8.686;2024-01-06T11:18:29;5.88;;;5.13;;
25479;SDS011;13393;49.378;8.686;2024-01-06T11:21:14;11.10;;;5.38;;
25479;SDS011;13393;49.378;8.686;2024-01-06T11:23:42;7.35;;;5.88;;
25479;SDS011;13393;49.378;8.686;2024-01-06T11:26:09;10.15;;;5.25;;
25479;SDS011;13393;49.378;8.686;2024-01-06T11:28:42;7.47;;;5.60;;
25479;SDS011;13393;49.378;8.686;2024-01-06T11:31:11;9.65;;;6.22;;
25479;SDS011;13393;49.378;8.686;2024-01-06T11:33:40;8.65;;;6.22;;
25479;SDS011;13393;49.378;8.686;2024-01-06T11:36:08;11.32;;;5.97;;
25479;SDS011;13393;49.378;8.686;2024-01-06T11:38:37;10.02;;;6.47;;
25479;SDS011;13393;49.378;8.686;2024-01-06T11:41:03;8.35;;;5.50;;
25479;SDS011;13393;49.378;8.686;2024-01-06T11:43:30;8.07;;;5.63;;
25479;SDS011;13393;49.378;8.686;2024-01-06T11:46:02;10.60;;;6.53;;
25479;SDS011;13393;49.378;8.686;2024-01-06T11:48:30;9.48;;;6.10;;
25479;SDS011;13393;49.378;8.686;2024-01-06T11:50:58;10.93;;;5.68;;
25479;SDS011;13393;49.378;8.686;2024-01-06T11:53:26;11.52;;;7.28;;
25479;SDS011;13393;49.378;8.686;2024-01-06T11:55:53;10.65;;;6.13;;
25479;SDS011;13393;49.378;8.686;2024-01-06T11:58:20;8.75;;;6.60;;
25479;SDS011;13393;49.378;8.686;2024-01-06T12:00:54;9.23;;;6.80;;
25479;SDS011;13393;49.378;8.686;2024-01-06T12:03:21;7.70;;;6.45;;
25479;SDS011;13393;49.378;8.686;2024-01-06T12:05:59;10.27;;;6.68;;
25479;SDS011;13393;49.378;8.686;2024-01-06T12:08:27;10.52;;;6.60;;
25479;SDS011;13393;49.378;8.686;2024-01-06T12:11:01;9.15;;;5.63;;
25479;SDS011;13393;49.378;8.686;2024-01-06T12:13:27;10.87;;;5.80;;
25479;SDS011;13393;49.378;8.686;2024-01-06T12:15:54;8.93;;;6.03;;
25479;SDS011;13393;49.378;8.686;2024-01-06T12:18:21;9.02;;;6.00;;
25479;SDS011;13393;49.378;8.686;2024-01-06T12:20:49;9.77;;;6.43;;
25479;SDS011;13393;49.378;8.686;2024-01-06T12:23:24;7.93;;;5.82;;
25479;SDS011;13393;49.378;8.686;2024-01-06T12:25:52;6.55;;;5.75;;
25479;SDS011;13393;49.378;8.686;2024-01-06T12:28:18;9.80;;;6.30;;
25479;SDS011;13393;49.378;8.686;2024-01-06T12:30:45;9.15;;;6.65;;
25479;SDS011;13393;49.378;8.686;2024-01-06T12:33:12;9.32;;;6.60;;
25479;SDS011;13393;49.378;8.686;2024-01-06T12:35:39;8.73;;;6.80;;
25479;SDS011;13393;49.378;8.686;2024-01-06T12:38:08;9.02;;;6.03;;
25479;SDS011;13393;49.378;8.686;2024-01-06T12:40:36;8.57;;;6.30;;
25479;SDS011;13393;49.378;8.686;2024-01-06T12:43:03;8.27;;;6.35;;
25479;SDS011;13393;49.378;8.686;2024-01-06T12:45:29;9.13;;;6.45;;
25479;SDS011;13393;49.378;8.686;2024-01-06T12:47:56;7.80;;;6.57;;
25479;SDS011;13393;49.378;8.686;2024-01-06T12:50:23;10.13;;;6.53;;
25479;SDS011;13393;49.378;8.686;2024-01-06T12:52:49;9.60;;;6.72;;
25479;SDS011;13393;49.378;8.686;2024-01-06T12:55:16;8.13;;;6.20;;
25479;SDS011;13393;49.378;8.686;2024-01-06T12:57:45;13.00;;;6.38;;
25479;SDS011;13393;49.378;8.686;2024-01-06T13:00:11;7.32;;;6.50;;
25479;SDS011;13393;49.378;8.686;2024-01-06T13:02:39;10.18;;;6.68;;
25479;SDS011;13393;49.378;8.686;2024-01-06T13:05:05;9.45;;;6.05;;
25479;SDS011;13393;49.378;8.686;2024-01-06T13:07:34;13.65;;;6.13;;
25479;SDS011;13393;49.378;8.686;2024-01-06T13:10:01;10.40;;;6.15;;
25479;SDS011;13393;49.378;8.686;2024-01-06T13:12:28;9.65;;;6.20;;
25479;SDS011;13393;49.378;8.686;2024-01-06T13:14:56;9.43;;;6.22;;
25479;SDS011;13393;49.378;8.686;2024-01-06T13:17:24;11.13;;;6.45;;
25479;SDS011;13393;49.378;8.686;2024-01-06T13:19:50;9.10;;;6.97;;
25479;SDS011;13393;49.378;8.686;2024-01-06T13:22:17;8.23;;;6.15;;
25479;SDS011;13393;49.378;8.686;2024-01-06T13:24:47;7.63;;;5.47;;
25479;SDS011;13393;49.378;8.686;2024-01-06T13:27:13;9.80;;;6.25;;
25479;SDS011;13393;49.378;8.686;2024-01-06T13:29:40;8.38;;;5.93;;
25479;SDS011;13393;49.378;8.686;2024-01-06T13:32:08;8.40;;;5.65;;
25479;SDS011;13393;49.378;8.686;2024-01-06T13:34:36;7.93;;;6.18;;
25479;SDS011;13393;49.378;8.686;2024-01-06T13:37:03;9.32;;;6.18;;
25479;SDS011;13393;49.378;8.686;2024-01-06T13:39:30;10.45;;;6.90;;
25479;SDS011;13393;49.378;8.686;2024-01-06T13:42:06;10.07;;;6.50;;
25479;SDS011;13393;49.378;8.686;2024-01-06T13:44:33;8.32;;;6.07;;
25479;SDS011;13393;49.378;8.686;2024-01-06T13:46:59;8.50;;;5.57;;
25479;SDS011;13393;49.378;8.686;2024-01-06T13:49:28;7.55;;;5.72;;
25479;SDS011;13393;49.378;8.686;2024-01-06T13:51:54;8.18;;;5.90;;
25479;SDS011;13393;49.378;8.686;2024-01-06T13:54:21;8.77;;;5.65;;
25479;SDS011;13393;49.378;8.686;2024-01-06T13:56:48;7.03;;;5.50;;
25479;SDS011;13393;49.378;8.686;2024-01-06T13:59:15;8.82;;;5.55;;
25479;SDS011;13393;49.378;8.686;2024-01-06T14:01:41;7.05;;;5.43;;
25479;SDS011;13393;49.378;8.686;2024-01-06T14:04:08;8.38;;;5.68;;
25479;SDS011;13393;49.378;8.686;2024-01-06T14:06:37;7.75;;;6.22;;
25479;SDS011;13393;49.378;8.686;2024-01-06T14:09:04;8.10;;;5.38;;
25479;SDS011;13393;49.378;8.686;2024-01-06T14:11:31;8.23;;;5.57;;
25479;SDS011;13393;49.378;8.686;2024-01-06T14:13:59;6.75;;;5.78;;
25479;SDS011;13393;49.378;8.686;2024-01-06T14:16:25;9.43;;;6.20;;
25479;SDS011;13393;49.378;8.686;2024-01-06T14:18:52;8.18;;;6.05;;
25479;SDS011;13393;49.378;8.686;2024-01-06T14:21:18;7.82;;;6.18;;
25479;SDS011;13393;49.378;8.686;2024-01-06T14:23:47;11.20;;;6.20;;
25479;SDS011;13393;49.378;8.686;2024-01-06T14:26:14;9.63;;;6.13;;
25479;SDS011;13393;49.378;8.686;2024-01-06T14:28:41;7.30;;;5.28;;
25479;SDS011;13393;49.378;8.686;2024-01-06T14:31:08;8.55;;;6.15;;
25479;SDS011;13393;49.378;8.686;2024-01-06T14:33:35;9.00;;;6.03;;
25479;SDS011;13393;49.378;8.686;2024-01-06T14:36:01;8.15;;;5.90;;
25479;SDS011;13393;49.378;8.686;2024-01-06T14:38:28;8.45;;;5.93;;
25479;SDS011;13393;49.378;8.686;2024-01-06T14:40:57;7.10;;;5.80;;
25479;SDS011;13393;49.378;8.686;2024-01-06T14:43:24;9.27;;;5.13;;
25479;SDS011;13393;49.378;8.686;2024-01-06T14:45:51;7.97;;;5.93;;